Time;durP1;ratioP1;P1;durP2;ratioP2;P2;SDS_P1;SDS_P2;PMS_P1;PMS_P2;Temp;Humidity;BMP_temperature;BMP_pressure;BME280_temperature;BME280_humidity;BME280_pressure;Samples;Min_cycle;Max_cycle;Signal;HPM_P1;HPM_P2
2023/01/13 00:02:26;;;;;;;24.88;5.43;;;;;;;;;;4988326;28;100240;-74
2023/01/13 00:04:52;;;;;;;34.47;6.60;;;;;;;;;;4988145;28;99636;-75
2023/01/13 00:07:19;;;;;;;33.55;5.80;;;;;;;;;;4987129;28;99899;-74
2023/01/13 00:09:45;;;;;;;28.85;5.38;;;;;;;;;;4985451;28;100168;-74
2023/01/13 00:12:12;;;;;;;41.33;6.30;;;;;;;;;;4987292;28;99078;-73
2023/01/13 00:14:38;;;;;;;33.13;6.13;;;;;;;;;;4987700;28;99871;-73
2023/01/13 00:17:04;;;;;;;35.03;5.63;;;;;;;;;;4986346;28;100211;-73
2023/01/13 00:19:31;;;;;;;33.15;5.53;;;;;;;;;;4992252;28;100525;-73
2023/01/13 00:21:57;;;;;;;33.65;6.07;;;;;;;;;;4985165;28;100300;-73
2023/01/13 00:24:23;;;;;;;32.03;5.35;;;;;;;;;;4988550;28;99987;-74
2023/01/13 00:26:51;;;;;;;30.60;6.60;;;;;;;;;;4987746;28;99985;-73
2023/01/13 00:29:17;;;;;;;41.92;6.15;;;;;;;;;;4987312;28;99304;-75
2023/01/13 00:31:44;;;;;;;37.95;6.25;;;;;;;;;;4988054;28;99553;-74
2023/01/13 00:34:10;;;;;;;31.40;7.03;;;;;;;;;;4986532;28;99391;-74
2023/01/13 00:36:36;;;;;;;28.17;5.28;;;;;;;;;;5007520;28;99355;-74
2023/01/13 00:39:03;;;;;;;43.65;6.60;;;;;;;;;;4986452;28;99895;-74
2023/01/13 00:43:21;;;;;;;35.15;6.43;;;;;;;;;;4985871;28;99554;-74
2023/01/13 00:44:16;;;;;;;36.60;6.18;;;;;;;;;;4980564;28;99960;-74
2023/01/13 00:46:42;;;;;;;34.97;6.18;;;;;;;;;;4991978;28;99344;-74
2023/01/13 00:49:08;;;;;;;27.55;5.63;;;;;;;;;;4985640;28;99386;-73
2023/01/13 00:51:35;;;;;;;40.83;7.47;;;;;;;;;;4986615;28;99914;-74
2023/01/13 00:54:01;;;;;;;31.48;7.65;;;;;;;;;;4986133;28;100335;-74
2023/01/13 00:56:27;;;;;;;39.10;6.28;;;;;;;;;;4998238;28;99580;-73
2023/01/13 00:59:06;;;;;;;34.92;6.85;;;;;;;;;;4995158;28;100215;-74
2023/01/13 01:01:33;;;;;;;39.90;6.43;;;;;;;;;;4986257;28;100142;-74
2023/01/13 01:03:59;;;;;;;40.20;7.35;;;;;;;;;;4984089;28;100078;-74
2023/01/13 01:06:26;;;;;;;42.53;6.72;;;;;;;;;;4986147;28;100105;-73
2023/01/13 01:08:53;;;;;;;37.17;6.28;;;;;;;;;;4985044;28;100323;-74
2023/01/13 01:11:21;;;;;;;32.90;6.20;;;;;;;;;;4986074;28;100098;-74
2023/01/13 01:13:48;;;;;;;43.28;6.35;;;;;;;;;;4985061;28;99912;-74
2023/01/13 01:16:16;;;;;;;43.33;6.47;;;;;;;;;;4985067;28;100285;-74
2023/01/13 01:18:43;;;;;;;39.13;8.23;;;;;;;;;;4997788;28;100112;-73
2023/01/13 01:21:10;;;;;;;40.85;6.50;;;;;;;;;;4986015;28;99758;-73
2023/01/13 01:23:37;;;;;;;32.65;5.97;;;;;;;;;;4991453;28;100347;-73
2023/01/13 01:26:05;;;;;;;38.85;5.50;;;;;;;;;;4985649;28;99968;-74
2023/01/13 01:28:32;;;;;;;51.17;6.97;;;;;;;;;;4984925;28;101285;-74
2023/01/13 01:30:58;;;;;;;34.10;6.47;;;;;;;;;;4978688;28;100091;-74
2023/01/13 01:33:25;;;;;;;45.10;6.53;;;;;;;;;;4985213;28;100005;-74
2023/01/13 01:35:52;;;;;;;35.53;6.65;;;;;;;;;;4985486;28;100288;-73
2023/01/13 01:38:20;;;;;;;44.45;6.22;;;;;;;;;;4998704;28;100729;-73
2023/01/13 01:40:46;;;;;;;30.38;5.65;;;;;;;;;;4988082;28;100167;-73
2023/01/13 01:45:59;;;;;;;41.80;5.78;;;;;;;;;;4987154;28;100077;-74
2023/01/13 01:48:26;;;;;;;46.15;6.70;;;;;;;;;;4984832;28;100541;-73
2023/01/13 01:50:53;;;;;;;32.92;6.22;;;;;;;;;;4984799;28;100117;-75
2023/01/13 01:53:23;;;;;;;36.60;7.15;;;;;;;;;;4996451;28;99885;-73
2023/01/13 01:55:49;;;;;;;47.58;5.78;;;;;;;;;;4986304;28;99348;-73
2023/01/13 01:58:21;;;;;;;50.05;7.82;;;;;;;;;;4989338;28;100151;-73
2023/01/13 02:00:47;;;;;;;39.83;7.18;;;;;;;;;;4987902;28;99185;-73
2023/01/13 02:03:15;;;;;;;32.75;5.72;;;;;;;;;;5003719;28;100346;-74
2023/01/13 02:05:41;;;;;;;47.53;7.05;;;;;;;;;;4989171;28;99424;-73
2023/01/13 02:08:08;;;;;;;16.80;5.43;;;;;;;;;;4987512;28;99286;-74
2023/01/13 02:10:35;;;;;;;40.17;5.85;;;;;;;;;;4989837;28;99915;-74
2023/01/13 02:13:04;;;;;;;37.83;6.30;;;;;;;;;;4997673;28;99290;-73
2023/01/13 02:15:49;;;;;;;45.05;7.93;;;;;;;;;;4980344;28;100991;-75
2023/01/13 02:18:36;;;;;;;38.42;6.55;;;;;;;;;;4988355;28;100945;-74
2023/01/13 02:21:18;;;;;;;32.92;6.55;;;;;;;;;;4992033;28;101190;-74
2023/01/13 02:27:06;;;;;;;34.40;7.22;;;;;;;;;;4992003;28;100119;-74
2023/01/13 02:32:49;;;;;;;24.70;5.10;;;;;;;;;;4991716;28;99993;-74
2023/01/13 02:35:28;;;;;;;40.95;6.93;;;;;;;;;;4983056;28;99122;-75
2023/01/13 02:37:55;;;;;;;46.38;6.40;;;;;;;;;;4989421;28;98884;-74
2023/01/13 02:40:28;;;;;;;33.55;5.70;;;;;;;;;;4988059;28;99212;-75
2023/01/13 02:45:45;;;;;;;28.08;5.10;;;;;;;;;;4986806;28;100535;-74
2023/01/13 02:48:12;;;;;;;45.90;6.35;;;;;;;;;;4987416;28;100234;-74
2023/01/13 02:50:45;;;;;;;33.83;6.57;;;;;;;;;;4991610;28;100121;-74
2023/01/13 02:53:11;;;;;;;;;;;;;;;;;;4984751;28;99924;-74
2023/01/13 02:55:41;;;;;;;56.30;6.72;;;;;;;;;;4986327;28;128892;-74
2023/01/13 02:58:10;;;;;;;36.38;6.55;;;;;;;;;;4987259;28;100059;-74
2023/01/13 03:00:37;;;;;;;39.47;7.32;;;;;;;;;;4987839;28;100193;-74
2023/01/13 03:03:04;;;;;;;44.13;6.47;;;;;;;;;;4989563;28;100162;-74
2023/01/13 03:05:31;;;;;;;34.45;7.00;;;;;;;;;;4986578;28;100342;-74
2023/01/13 03:08:00;;;;;;;29.50;5.97;;;;;;;;;;4987177;28;98987;-74
2023/01/13 03:10:27;;;;;;;37.45;6.57;;;;;;;;;;4987196;28;99820;-74
2023/01/13 03:12:59;;;;;;;32.60;5.53;;;;;;;;;;4990126;28;99391;-74
2023/01/13 03:15:44;;;;;;;45.78;7.55;;;;;;;;;;4987516;28;99905;-75
2023/01/13 03:18:29;;;;;;;40.03;5.93;;;;;;;;;;4988393;28;100255;-75
2023/01/13 03:21:05;;;;;;;30.77;5.28;;;;;;;;;;4987177;28;99998;-74
2023/01/13 03:23:38;;;;;;;31.25;5.55;;;;;;;;;;5005190;28;100385;-74
2023/01/13 03:26:11;;;;;;;43.05;7.57;;;;;;;;;;4986550;28;99781;-74
2023/01/13 03:28:56;;;;;;;35.63;5.68;;;;;;;;;;4982202;28;100154;-75
2023/01/13 03:31:27;;;;;;;34.72;6.55;;;;;;;;;;4987840;28;99588;-74
2023/01/13 03:33:56;;;;;;;36.08;7.80;;;;;;;;;;4985574;28;100493;-75
2023/01/13 03:36:24;;;;;;;40.25;6.50;;;;;;;;;;4988160;28;99377;-74
2023/01/13 03:38:53;;;;;;;41.00;6.47;;;;;;;;;;4985761;28;100224;-74
2023/01/13 03:41:26;;;;;;;48.85;7.85;;;;;;;;;;4987279;28;99196;-74
2023/01/13 03:46:45;;;;;;;36.67;5.85;;;;;;;;;;4992245;28;99444;-74
2023/01/13 03:49:15;;;;;;;33.40;6.20;;;;;;;;;;4987668;28;99886;-74
2023/01/13 03:51:44;;;;;;;39.00;7.22;;;;;;;;;;4987566;28;99285;-75
2023/01/13 03:54:11;;;;;;;29.65;5.68;;;;;;;;;;4986261;28;99558;-74
2023/01/13 03:56:40;;;;;;;30.05;5.90;;;;;;;;;;4992113;28;99293;-74
2023/01/13 03:59:10;;;;;;;29.63;5.10;;;;;;;;;;4986243;28;100361;-74
2023/01/13 04:01:49;;;;;;;25.95;4.80;;;;;;;;;;4987589;28;100210;-74
2023/01/13 04:04:23;;;;;;;37.42;5.57;;;;;;;;;;4987526;28;100493;-74
2023/01/13 04:06:53;;;;;;;24.65;4.20;;;;;;;;;;4985576;28;100547;-74
2023/01/13 04:09:26;;;;;;;30.80;4.30;;;;;;;;;;4987682;28;99413;-74
2023/01/13 04:11:55;;;;;;;30.10;5.45;;;;;;;;;;4985896;28;99781;-74
2023/01/13 04:14:22;;;;;;;25.65;4.30;;;;;;;;;;4985580;28;100119;-74
2023/01/13 04:16:48;;;;;;;22.48;4.03;;;;;;;;;;4990987;28;99254;-75
2023/01/13 04:19:15;;;;;;;25.58;4.15;;;;;;;;;;4983320;28;100228;-74
2023/01/13 04:21:41;;;;;;;30.38;4.35;;;;;;;;;;5003450;28;100063;-74
2023/01/13 04:24:07;;;;;;;23.35;4.43;;;;;;;;;;4986698;28;100202;-75
2023/01/13 04:26:34;;;;;;;9.80;2.17;;;;;;;;;;4992714;28;100034;-74
2023/01/13 04:29:00;;;;;;;22.67;4.15;;;;;;;;;;4985798;28;99089;-73
2023/01/13 04:31:26;;;;;;;26.65;3.60;;;;;;;;;;4986639;28;99454;-74
2023/01/13 04:33:53;;;;;;;21.45;4.03;;;;;;;;;;5003451;28;99623;-74
2023/01/13 04:36:23;;;;;;;14.82;3.38;;;;;;;;;;4986803;28;100437;-74
2023/01/13 04:38:50;;;;;;;21.88;3.47;;;;;;;;;;4985626;28;99975;-74
2023/01/13 04:41:16;;;;;;;22.55;3.88;;;;;;;;;;4994510;28;99466;-74
2023/01/13 04:43:43;;;;;;;14.32;4.07;;;;;;;;;;4995383;28;99116;-74
2023/01/13 04:46:09;;;;;;;13.23;3.05;;;;;;;;;;4987337;28;100838;-74
2023/01/13 04:48:35;;;;;;;7.18;2.58;;;;;;;;;;4985319;28;100425;-74
2023/01/13 04:51:02;;;;;;;20.98;2.95;;;;;;;;;;4985948;28;100859;-74
2023/01/13 04:53:28;;;;;;;14.85;3.40;;;;;;;;;;4991674;28;100557;-74
2023/01/13 04:55:55;;;;;;;16.05;2.75;;;;;;;;;;4984867;28;101297;-74
2023/01/13 04:58:21;;;;;;;17.85;2.97;;;;;;;;;;4986234;28;99198;-74
2023/01/13 05:00:48;;;;;;;10.68;2.47;;;;;;;;;;4987115;28;99552;-74
2023/01/13 05:03:15;;;;;;;12.43;2.08;;;;;;;;;;5000800;28;100536;-74
2023/01/13 05:05:42;;;;;;;12.25;2.40;;;;;;;;;;4986138;28;100431;-74
2023/01/13 05:08:08;;;;;;;11.80;2.70;;;;;;;;;;4986210;28;99841;-75
2023/01/13 05:10:35;;;;;;;16.52;3.47;;;;;;;;;;4991030;28;99482;-75
2023/01/13 05:18:32;;;;;;;12.90;2.95;;;;;;;;;;4985227;28;100313;-75
2023/01/13 05:20:58;;;;;;;14.35;3.15;;;;;;;;;;4990695;28;100268;-74
2023/01/13 05:26:10;;;;;;;21.30;3.50;;;;;;;;;;4989004;28;98944;-73
2023/01/13 05:28:36;;;;;;;18.65;3.55;;;;;;;;;;4985527;28;99024;-73
2023/01/13 05:31:02;;;;;;;15.07;2.80;;;;;;;;;;4983608;28;100095;-74
2023/01/13 05:33:29;;;;;;;16.52;3.13;;;;;;;;;;4987181;28;98897;-74
2023/01/13 05:35:55;;;;;;;15.57;2.95;;;;;;;;;;4989139;28;99114;-74
2023/01/13 05:38:22;;;;;;;15.10;2.95;;;;;;;;;;4984456;28;99943;-76
2023/01/13 05:43:33;;;;;;;20.02;3.38;;;;;;;;;;4984550;28;99362;-74
2023/01/13 05:46:03;;;;;;;24.85;4.80;;;;;;;;;;4988263;28;100265;-73
2023/01/13 05:48:31;;;;;;;25.50;3.22;;;;;;;;;;4985597;28;99493;-73
2023/01/13 05:50:58;;;;;;;13.43;3.03;;;;;;;;;;4986634;28;99933;-74
2023/01/13 05:53:25;;;;;;;19.15;4.03;;;;;;;;;;4995734;28;100529;-74
2023/01/13 05:55:51;;;;;;;18.63;3.10;;;;;;;;;;4985128;28;98994;-74
2023/01/13 05:58:19;;;;;;;25.83;4.00;;;;;;;;;;4978951;28;99900;-74
2023/01/13 06:00:45;;;;;;;22.88;3.85;;;;;;;;;;4985345;28;99557;-74
2023/01/13 06:03:12;;;;;;;21.20;4.57;;;;;;;;;;4984406;28;99809;-74
2023/01/13 06:05:39;;;;;;;24.45;3.35;;;;;;;;;;4978760;28;99276;-74
2023/01/13 06:08:06;;;;;;;22.17;3.72;;;;;;;;;;4988638;28;99287;-74
2023/01/13 06:10:32;;;;;;;11.65;3.40;;;;;;;;;;4985430;28;100145;-74
2023/01/13 06:12:59;;;;;;;13.52;3.58;;;;;;;;;;4998181;27;99723;-74
2023/01/13 06:15:25;;;;;;;19.67;4.03;;;;;;;;;;4982759;28;99274;-73
2023/01/13 06:17:52;;;;;;;21.67;3.67;;;;;;;;;;4984222;28;100035;-74
2023/01/13 06:20:19;;;;;;;12.82;2.95;;;;;;;;;;4983935;28;100167;-74
2023/01/13 06:22:46;;;;;;;23.52;4.25;;;;;;;;;;4990285;28;100043;-74
2023/01/13 06:25:29;;;;;;;16.05;3.72;;;;;;;;;;4984324;28;99714;-74
2023/01/13 06:27:57;;;;;;;22.90;3.50;;;;;;;;;;4984288;28;99494;-74
2023/01/13 06:30:25;;;;;;;31.38;4.68;;;;;;;;;;4987400;28;100032;-74
2023/01/13 06:32:53;;;;;;;20.27;3.40;;;;;;;;;;4984337;28;99417;-73
2023/01/13 06:35:22;;;;;;;26.20;3.30;;;;;;;;;;4984624;28;98994;-74
2023/01/13 06:37:50;;;;;;;25.10;4.32;;;;;;;;;;4985293;28;99954;-73
2023/01/13 06:40:16;;;;;;;24.38;3.53;;;;;;;;;;4985055;28;99387;-75
2023/01/13 06:45:29;;;;;;;24.08;5.15;;;;;;;;;;4987916;28;99889;-74
2023/01/13 06:47:57;;;;;;;18.17;3.83;;;;;;;;;;4992382;28;99679;-74
2023/01/13 06:50:23;;;;;;;19.40;3.38;;;;;;;;;;4995216;28;99131;-74
2023/01/13 06:52:50;;;;;;;17.65;3.55;;;;;;;;;;4996892;28;100222;-74
2023/01/13 06:55:16;;;;;;;20.02;3.58;;;;;;;;;;4986787;28;101548;-73
2023/01/13 06:58:01;;;;;;;20.77;3.65;;;;;;;;;;4993331;28;100944;-73
2023/01/13 07:00:27;;;;;;;23.15;4.43;;;;;;;;;;4988812;28;99840;-73
2023/01/13 07:03:03;;;;;;;22.67;3.75;;;;;;;;;;4987953;28;98752;-74
2023/01/13 07:05:32;;;;;;;21.55;3.40;;;;;;;;;;4983886;28;99953;-74
2023/01/13 07:07:58;;;;;;;23.98;4.13;;;;;;;;;;4988542;28;100174;-73
2023/01/13 07:10:25;;;;;;;22.88;4.13;;;;;;;;;;4987683;28;100075;-74
2023/01/13 07:15:36;;;;;;;31.83;4.82;;;;;;;;;;4987859;28;99997;-73
2023/01/13 07:18:02;;;;;;;22.17;3.55;;;;;;;;;;4986861;28;99238;-73
2023/01/13 07:20:29;;;;;;;21.55;4.22;;;;;;;;;;4986508;28;100990;-74
2023/01/13 07:22:56;;;;;;;26.92;5.88;;;;;;;;;;4987335;28;98894;-74
2023/01/13 07:25:22;;;;;;;24.95;4.93;;;;;;;;;;4986276;28;100185;-74
2023/01/13 07:27:49;;;;;;;23.17;4.22;;;;;;;;;;4987230;28;100448;-74
2023/01/13 07:30:15;;;;;;;27.75;4.88;;;;;;;;;;4988104;28;99121;-74
2023/01/13 07:32:42;;;;;;;19.77;3.55;;;;;;;;;;4986112;28;100013;-73
2023/01/13 07:35:08;;;;;;;23.55;4.63;;;;;;;;;;4988074;28;100194;-73
2023/01/13 07:37:36;;;;;;;26.98;3.90;;;;;;;;;;4983668;28;98382;-74
2023/01/13 07:40:03;;;;;;;27.67;5.35;;;;;;;;;;4985494;28;100833;-73
2023/01/13 07:45:14;;;;;;;22.52;3.95;;;;;;;;;;4991477;28;101511;-73
2023/01/13 07:47:41;;;;;;;24.00;4.78;;;;;;;;;;4987010;28;100641;-73
2023/01/13 07:50:07;;;;;;;21.85;3.95;;;;;;;;;;4986339;28;99134;-74
2023/01/13 07:52:34;;;;;;;27.38;4.93;;;;;;;;;;4987294;28;98977;-74
2023/01/13 07:55:00;;;;;;;20.30;4.45;;;;;;;;;;4984690;28;99324;-74
2023/01/13 07:57:26;;;;;;;26.35;5.40;;;;;;;;;;4983927;28;100389;-74
2023/01/13 07:59:53;;;;;;;22.40;3.83;;;;;;;;;;4976047;28;100407;-73
2023/01/13 08:02:20;;;;;;;29.52;6.22;;;;;;;;;;4985981;28;99996;-74
2023/01/13 08:04:47;;;;;;;22.73;4.40;;;;;;;;;;4983863;28;99476;-74
2023/01/13 08:07:13;;;;;;;20.67;4.30;;;;;;;;;;4984807;28;99463;-74
2023/01/13 08:09:39;;;;;;;24.60;4.32;;;;;;;;;;4985099;28;100272;-74
2023/01/13 08:14:52;;;;;;;29.48;4.30;;;;;;;;;;4972721;28;102284;-73
2023/01/13 08:17:19;;;;;;;26.13;4.60;;;;;;;;;;4976846;28;100640;-73
2023/01/13 08:19:46;;;;;;;26.92;4.85;;;;;;;;;;4979225;28;98916;-73
2023/01/13 08:22:12;;;;;;;25.95;4.70;;;;;;;;;;4974647;28;99771;-73
2023/01/13 08:24:39;;;;;;;26.55;4.32;;;;;;;;;;4980288;28;99053;-73
2023/01/13 08:27:05;;;;;;;26.40;4.35;;;;;;;;;;4976770;28;99766;-74
2023/01/13 08:29:31;;;;;;;26.67;4.78;;;;;;;;;;4978124;28;99988;-73
2023/01/13 08:31:58;;;;;;;19.10;4.53;;;;;;;;;;4972157;28;100206;-73
2023/01/13 08:34:24;;;;;;;28.40;4.40;;;;;;;;;;4980112;27;100517;-74
2023/01/13 08:36:50;;;;;;;32.92;3.85;;;;;;;;;;4979063;28;100141;-73
2023/01/13 08:39:17;;;;;;;23.70;4.43;;;;;;;;;;4976605;28;100281;-73
2023/01/13 08:41:57;;;;;;;22.20;4.70;;;;;;;;;;4980513;28;100237;-73
2023/01/13 08:44:27;;;;;;;15.70;3.15;;;;;;;;;;4979682;28;99230;-73
2023/01/13 08:46:54;;;;;;;26.02;4.28;;;;;;;;;;4974020;28;100260;-73
2023/01/13 08:49:21;;;;;;;19.23;4.50;;;;;;;;;;4982883;28;99530;-73
2023/01/13 08:51:48;;;;;;;34.65;5.60;;;;;;;;;;4974638;28;99939;-74
2023/01/13 08:54:14;;;;;;;29.83;4.53;;;;;;;;;;4972419;28;99496;-74
2023/01/13 08:56:41;;;;;;;24.25;4.32;;;;;;;;;;4977302;28;100182;-74
2023/01/13 08:59:11;;;;;;;29.00;5.22;;;;;;;;;;4969469;28;99345;-75
2023/01/13 09:01:39;;;;;;;26.45;4.60;;;;;;;;;;4975725;28;100220;-74
2023/01/13 09:04:07;;;;;;;27.10;5.25;;;;;;;;;;4982538;28;100135;-74
2023/01/13 09:06:34;;;;;;;37.70;4.93;;;;;;;;;;4973227;28;99274;-74
2023/01/13 09:09:01;;;;;;;30.52;4.57;;;;;;;;;;4977981;28;99319;-74
2023/01/13 09:14:18;;;;;;;23.30;4.03;;;;;;;;;;4973923;28;99820;-74
2023/01/13 09:16:44;;;;;;;20.48;3.95;;;;;;;;;;4976683;28;99788;-74
2023/01/13 09:19:11;;;;;;;20.88;5.13;;;;;;;;;;4977808;28;99520;-74
2023/01/13 09:21:37;;;;;;;31.85;3.80;;;;;;;;;;4980683;28;100546;-74
2023/01/13 09:24:04;;;;;;;20.33;3.65;;;;;;;;;;4975999;28;99912;-74
2023/01/13 09:26:30;;;;;;;25.13;4.28;;;;;;;;;;4974350;28;100883;-73
2023/01/13 09:28:56;;;;;;;17.88;4.07;;;;;;;;;;4975332;28;100011;-73
2023/01/13 09:31:22;;;;;;;22.88;4.20;;;;;;;;;;4975112;28;100092;-74
2023/01/13 09:36:45;;;;;;;28.48;4.57;;;;;;;;;;4944822;28;100152;-75
2023/01/13 09:39:11;;;;;;;37.17;5.25;;;;;;;;;;4976418;28;100475;-73
2023/01/13 09:44:38;;;;;;;21.10;3.25;;;;;;;;;;4976525;28;100010;-73
2023/01/13 09:47:08;;;;;;;21.17;4.10;;;;;;;;;;4979357;28;99966;-74
2023/01/13 09:49:34;;;;;;;36.85;5.93;;;;;;;;;;4974056;28;99468;-73
2023/01/13 09:52:03;;;;;;;17.35;3.45;;;;;;;;;;4975872;28;99790;-74
2023/01/13 09:54:53;;;;;;;24.50;4.28;;;;;;;;;;4973668;28;100321;-74
2023/01/13 09:57:20;;;;;;;18.38;3.35;;;;;;;;;;4961449;28;99426;-74
2023/01/13 09:59:47;;;;;;;22.50;4.28;;;;;;;;;;4981223;28;99953;-73
2023/01/13 10:02:26;;;;;;;20.75;4.53;;;;;;;;;;4969724;28;100218;-72
2023/01/13 10:05:09;;;;;;;30.15;5.40;;;;;;;;;;4979134;28;99632;-72
2023/01/13 10:07:37;;;;;;;27.63;4.80;;;;;;;;;;4976854;28;99366;-73
2023/01/13 10:10:05;;;;;;;22.80;4.32;;;;;;;;;;4972200;28;100371;-73
2023/01/13 10:15:22;;;;;;;18.83;4.13;;;;;;;;;;4977151;28;101042;-72
2023/01/13 10:17:51;;;;;;;20.48;3.88;;;;;;;;;;4977093;28;99142;-73
2023/01/13 10:20:27;;;;;;;18.80;3.92;;;;;;;;;;4979236;28;100284;-72
2023/01/13 10:23:12;;;;;;;22.73;5.15;;;;;;;;;;4983999;28;100228;-74
2023/01/13 10:25:45;;;;;;;14.20;3.55;;;;;;;;;;4981366;28;100146;-72
2023/01/13 10:28:13;;;;;;;22.42;3.92;;;;;;;;;;4973725;28;98997;-73
2023/01/13 10:30:42;;;;;;;28.20;5.40;;;;;;;;;;4981843;28;99441;-72
2023/01/13 10:33:11;;;;;;;27.30;4.10;;;;;;;;;;4986809;28;99414;-73
2023/01/13 10:35:48;;;;;;;33.65;6.03;;;;;;;;;;4976510;28;100221;-74
2023/01/13 10:38:16;;;;;;;26.08;4.22;;;;;;;;;;4980517;28;100290;-73
2023/01/13 10:40:49;;;;;;;28.75;4.45;;;;;;;;;;4972266;28;100007;-74
2023/01/13 10:43:16;;;;;;;27.08;4.20;;;;;;;;;;4975959;28;100110;-74
2023/01/13 10:45:51;;;;;;;23.88;5.65;;;;;;;;;;4975553;28;99098;-74
2023/01/13 10:48:17;;;;;;;30.30;5.25;;;;;;;;;;4980329;28;99028;-74
2023/01/13 10:50:47;;;;;;;28.63;4.88;;;;;;;;;;4980088;28;100022;-72
2023/01/13 10:53:23;;;;;;;26.45;5.70;;;;;;;;;;4981052;28;100026;-72
2023/01/13 10:56:03;;;;;;;26.10;6.43;;;;;;;;;;5002292;28;100291;-73
2023/01/13 10:58:29;;;;;;;21.42;3.95;;;;;;;;;;4984818;28;99285;-73
2023/01/13 11:01:00;;;;;;;17.30;3.97;;;;;;;;;;4982190;28;99964;-73
2023/01/13 11:03:34;;;;;;;20.38;4.85;;;;;;;;;;4978684;28;99900;-73
2023/01/13 11:06:00;;;;;;;13.50;4.03;;;;;;;;;;4983873;28;99314;-73
2023/01/13 11:08:28;;;;;;;20.38;3.83;;;;;;;;;;4982180;28;100708;-72
2023/01/13 11:10:56;;;;;;;24.15;4.25;;;;;;;;;;4982344;28;99646;-73
2023/01/13 11:14:31;;;;;;;29.65;4.20;;;;;;;;;;4982745;28;100352;-73
2023/01/13 11:16:24;;;;;;;29.45;4.38;;;;;;;;;;4978893;28;98894;-73
2023/01/13 11:19:10;;;;;;;26.75;4.60;;;;;;;;;;4989215;28;100433;-74
2023/01/13 11:21:39;;;;;;;27.65;3.60;;;;;;;;;;4985174;28;99399;-74
2023/01/13 11:24:11;;;;;;;19.60;3.35;;;;;;;;;;4980817;28;99749;-75
2023/01/13 11:26:38;;;;;;;;;;;;;;;;;;4985565;28;100390;-74
2023/01/13 11:29:09;;;;;;;15.75;3.40;;;;;;;;;;4984547;28;126807;-74
2023/01/13 11:31:39;;;;;;;15.80;3.03;;;;;;;;;;4978284;28;100202;-73
2023/01/13 11:34:35;;;;;;;20.20;3.65;;;;;;;;;;4981686;28;99825;-73
2023/01/13 11:37:06;;;;;;;24.98;4.47;;;;;;;;;;4968714;28;101425;-74
2023/01/13 11:39:32;;;;;;;14.07;3.85;;;;;;;;;;4977743;28;100106;-72
2023/01/13 11:42:22;;;;;;;18.00;4.28;;;;;;;;;;4978138;28;100179;-73
2023/01/13 11:45:09;;;;;;;9.57;2.53;;;;;;;;;;4983096;28;99821;-75
2023/01/13 11:47:36;;;;;;;17.75;4.57;;;;;;;;;;4965665;28;100159;-73
2023/01/13 11:50:05;;;;;;;12.48;2.38;;;;;;;;;;4982289;28;100215;-73
2023/01/13 11:52:41;;;;;;;22.52;4.50;;;;;;;;;;4972111;28;100473;-73
2023/01/13 11:55:22;;;;;;;12.02;3.35;;;;;;;;;;4974505;28;100024;-73
2023/01/13 11:57:58;;;;;;;12.85;2.67;;;;;;;;;;4976520;28;100739;-73
2023/01/13 12:00:56;;;;;;;14.15;3.45;;;;;;;;;;4980483;28;99500;-72
2023/01/13 12:03:29;;;;;;;17.38;3.15;;;;;;;;;;4981707;28;100521;-73
2023/01/13 12:06:08;;;;;;;22.42;4.05;;;;;;;;;;4975924;28;100216;-74
2023/01/13 12:08:34;;;;;;;19.23;3.25;;;;;;;;;;4978577;28;100665;-73
2023/01/13 12:11:09;;;;;;;11.93;3.33;;;;;;;;;;4978795;28;100040;-74
2023/01/13 12:13:44;;;;;;;16.40;3.55;;;;;;;;;;4971915;28;99006;-72
2023/01/13 12:16:22;;;;;;;19.15;3.55;;;;;;;;;;4978214;28;99996;-73
2023/01/13 12:18:58;;;;;;;17.63;2.92;;;;;;;;;;4975283;28;99384;-73
2023/01/13 12:21:46;;;;;;;24.65;5.97;;;;;;;;;;4978972;28;100834;-74
2023/01/13 12:24:24;;;;;;;20.50;3.88;;;;;;;;;;4981783;28;100866;-72
2023/01/13 12:26:56;;;;;;;15.85;3.13;;;;;;;;;;4983104;28;100598;-73
2023/01/13 12:29:29;;;;;;;18.38;3.97;;;;;;;;;;4978231;28;99022;-72
2023/01/13 12:31:56;;;;;;;23.52;3.65;;;;;;;;;;4975849;28;99985;-73
2023/01/13 12:34:40;;;;;;;10.73;2.80;;;;;;;;;;4972801;28;100360;-72
2023/01/13 12:37:13;;;;;;;11.18;2.30;;;;;;;;;;4974654;28;100205;-71
2023/01/13 12:39:51;;;;;;;18.15;3.75;;;;;;;;;;4972065;28;100070;-72
2023/01/13 12:45:32;;;;;;;13.98;3.15;;;;;;;;;;4967015;28;100120;-71
2023/01/13 12:47:59;;;;;;;15.88;3.30;;;;;;;;;;4976034;28;99862;-72
2023/01/13 12:50:25;;;;;;;12.30;2.70;;;;;;;;;;4982260;28;99923;-72
2023/01/13 12:52:56;;;;;;;11.93;3.05;;;;;;;;;;4971305;28;99907;-70
2023/01/13 12:55:26;;;;;;;9.02;2.05;;;;;;;;;;4972613;28;100245;-71
2023/01/13 12:57:57;;;;;;;9.05;2.85;;;;;;;;;;4970360;28;100021;-72
2023/01/13 13:00:30;;;;;;;20.30;3.58;;;;;;;;;;4974787;28;100544;-71
2023/01/13 13:03:12;;;;;;;17.20;3.83;;;;;;;;;;4980856;28;99649;-70
2023/01/13 13:05:46;;;;;;;19.88;4.45;;;;;;;;;;4981802;28;100231;-71
2023/01/13 13:08:18;;;;;;;9.52;2.58;;;;;;;;;;4974345;28;99911;-71
2023/01/13 13:11:00;;;;;;;9.20;3.60;;;;;;;;;;4982428;28;100028;-70
2023/01/13 13:13:46;;;;;;;15.32;2.92;;;;;;;;;;4982826;28;100042;-72
2023/01/13 13:16:24;;;;;;;11.73;3.13;;;;;;;;;;4977130;28;101173;-73
2023/01/13 13:18:51;;;;;;;18.60;3.65;;;;;;;;;;4976870;28;99960;-72
2023/01/13 13:21:18;;;;;;;14.52;3.58;;;;;;;;;;4980826;28;99997;-72
2023/01/13 13:23:56;;;;;;;9.77;2.63;;;;;;;;;;4981186;28;99456;-73
2023/01/13 13:26:23;;;;;;;13.30;3.13;;;;;;;;;;4967661;28;100606;-72
2023/01/13 13:29:04;;;;;;;18.75;3.42;;;;;;;;;;4972054;28;99890;-72
2023/01/13 13:31:33;;;;;;;12.02;2.97;;;;;;;;;;4972939;28;100630;-73
2023/01/13 13:34:00;;;;;;;10.93;2.53;;;;;;;;;;4973172;28;99955;-74
2023/01/13 13:36:26;;;;;;;13.38;2.83;;;;;;;;;;4985651;28;99235;-72
2023/01/13 13:47:22;;;;;;;15.98;2.65;;;;;;;;;;4976568;28;100935;-72
2023/01/13 13:49:52;;;;;;;14.40;2.58;;;;;;;;;;4979736;28;99879;-72
2023/01/13 13:52:19;;;;;;;14.55;2.72;;;;;;;;;;4975076;28;100213;-72
2023/01/13 13:54:48;;;;;;;18.38;3.08;;;;;;;;;;4978362;28;99267;-72
2023/01/13 13:57:21;;;;;;;9.48;2.22;;;;;;;;;;4977729;28;99329;-72
2023/01/13 13:59:52;;;;;;;12.07;2.47;;;;;;;;;;4981703;28;99838;-73
2023/01/13 14:02:21;;;;;;;14.27;3.03;;;;;;;;;;4972160;28;100808;-74
2023/01/13 14:04:48;;;;;;;9.32;2.30;;;;;;;;;;4972681;28;101207;-73
2023/01/13 14:07:20;;;;;;;7.95;2.45;;;;;;;;;;4976652;28;99925;-73
2023/01/13 14:09:47;;;;;;;;;;;;;;;;;;4976407;28;101065;-72
2023/01/13 14:12:16;;;;;;;9.43;2.60;;;;;;;;;;4970744;28;129852;-74
2023/01/13 14:14:43;;;;;;;13.55;2.42;;;;;;;;;;4971797;28;100034;-72
2023/01/13 14:17:17;;;;;;;16.35;2.50;;;;;;;;;;4974312;28;99826;-72
2023/01/13 14:19:49;;;;;;;15.15;2.13;;;;;;;;;;4975767;28;100438;-73
2023/01/13 14:22:16;;;;;;;15.07;3.47;;;;;;;;;;4969601;28;99948;-73
2023/01/13 14:24:46;;;;;;;5.57;1.98;;;;;;;;;;4975495;28;100128;-71
2023/01/13 14:27:14;;;;;;;12.13;2.33;;;;;;;;;;4980157;28;100044;-71
2023/01/13 14:29:41;;;;;;;11.43;2.67;;;;;;;;;;4982523;28;99773;-71
2023/01/13 14:32:08;;;;;;;12.88;2.88;;;;;;;;;;4980504;28;100950;-72
2023/01/13 14:34:34;;;;;;;18.63;3.03;;;;;;;;;;4982742;28;100007;-72
2023/01/13 14:37:01;;;;;;;15.90;3.33;;;;;;;;;;4975565;28;100084;-71
2023/01/13 14:39:46;;;;;;;12.18;3.60;;;;;;;;;;4976691;28;100225;-72
2023/01/13 14:42:15;;;;;;;13.30;3.33;;;;;;;;;;4970662;28;98994;-71
2023/01/13 14:44:45;;;;;;;15.10;2.75;;;;;;;;;;4973928;28;100342;-72
2023/01/13 14:47:18;;;;;;;15.10;2.70;;;;;;;;;;4974267;28;100005;-72
2023/01/13 14:49:57;;;;;;;13.20;2.80;;;;;;;;;;4971222;28;99927;-71
2023/01/13 14:52:26;;;;;;;13.95;3.00;;;;;;;;;;4980262;28;99616;-71
2023/01/13 14:55:05;;;;;;;17.50;5.35;;;;;;;;;;4977861;28;100018;-72
2023/01/13 14:57:32;;;;;;;18.98;3.38;;;;;;;;;;4971658;28;100550;-71
2023/01/13 15:00:14;;;;;;;9.40;2.25;;;;;;;;;;4974094;28;101617;-73
2023/01/13 15:03:03;;;;;;;11.63;3.55;;;;;;;;;;4971947;28;99991;-72
2023/01/13 15:05:31;;;;;;;17.15;5.07;;;;;;;;;;4982946;28;99872;-71
2023/01/13 15:08:00;;;;;;;14.57;3.13;;;;;;;;;;4973361;28;100532;-71
2023/01/13 15:10:37;;;;;;;9.05;2.25;;;;;;;;;;4984319;28;99192;-70
2023/01/13 15:13:04;;;;;;;11.55;2.50;;;;;;;;;;4972766;28;100084;-72
2023/01/13 15:15:35;;;;;;;19.08;3.35;;;;;;;;;;4976613;28;99216;-71
2023/01/13 15:18:04;;;;;;;6.43;1.92;;;;;;;;;;4981697;28;100189;-71
2023/01/13 15:20:31;;;;;;;8.52;2.78;;;;;;;;;;4981221;28;100229;-71
2023/01/13 15:22:58;;;;;;;17.35;3.03;;;;;;;;;;4980315;28;99875;-72
2023/01/13 15:25:30;;;;;;;12.13;4.00;;;;;;;;;;4976954;28;100081;-72
2023/01/13 15:27:56;;;;;;;16.02;3.17;;;;;;;;;;4981182;28;99501;-71
2023/01/13 15:30:25;;;;;;;16.85;3.17;;;;;;;;;;4977637;28;99102;-72
2023/01/13 15:32:52;;;;;;;18.95;3.13;;;;;;;;;;4974772;28;100237;-72
2023/01/13 15:35:18;;;;;;;12.32;2.90;;;;;;;;;;4979135;28;100072;-71
2023/01/13 15:37:45;;;;;;;6.47;2.60;;;;;;;;;;4980873;28;100320;-72
2023/01/13 15:40:16;;;;;;;14.65;3.00;;;;;;;;;;4979224;28;99998;-72
2023/01/13 15:48:13;;;;;;;9.60;3.00;;;;;;;;;;4976664;28;101322;-72